Address 0x30e4efb2638fa59e5c5db3384e61f89810bc4827

Txn Hash
Block
From
To
Value [Txn Fee]
0xe3613264d55a077711fe7b874875755e210d3438bc3f40cf620e8721035e686690397822021-05-21 15:44:5325 days 37 mins ago0x30e4efb2638fa59e5c5db3384e61f89810bc4827OUT0xe9f518f9c0ed20e5b47e51bcc515781d8613ff950.2 BNB0.00021
0x3bfd18c6293f524a74e0b38df05033882e40e32fb4e0e15fab916af92930b76f90393382021-05-21 15:22:4125 days 59 mins ago0x30e4efb2638fa59e5c5db3384e61f89810bc4827OUT 0x52e16a186530ff7644483b2394fb7136011c24b50 BNB0.0008175
0x0c29227fa722ca66a55be6484139c323a2309a702e7440e35aa582296e5b009890389702021-05-21 15:04:1725 days 1 hr ago0x30e4efb2638fa59e5c5db3384e61f89810bc4827OUT 0x52e16a186530ff7644483b2394fb7136011c24b50 BNB0.00081738
0xfa08e933142c680919b751535861b3d01545c765518185d81ba5c40b5e351f5890389082021-05-21 15:01:1125 days 1 hr ago0x30e4efb2638fa59e5c5db3384e61f89810bc4827OUT 0x52e16a186530ff7644483b2394fb7136011c24b50 BNB0.00028592
0x75023ebed7f34331514649a753ba08569871c341811f156e9a41744efd335f2590388092021-05-21 14:56:1425 days 1 hr ago0xaa25aa7a19f9c426e07dee59b12f944f4d9f1dd3 IN 0x30e4efb2638fa59e5c5db3384e61f89810bc48271 BNB0.000378
0x0452c501d775b2cb92e5f6d268c2648fe931416fad12df857f786b12589bcf1190386662021-05-21 14:49:0525 days 1 hr ago0x30e4efb2638fa59e5c5db3384e61f89810bc4827OUT 0x52e16a186530ff7644483b2394fb7136011c24b50 BNB0.0008175
0xf704bb7f84f6c0f6aa765bc61cebabfe0d0fe3ba663a17cb8dc07f734721abee90317722021-05-21 9:04:2325 days 7 hrs ago0x30e4efb2638fa59e5c5db3384e61f89810bc4827OUT 0x52e16a186530ff7644483b2394fb7136011c24b50 BNB0.00096738
0xdd9f89d50e44a35b7f69e1b5f5655efb9efc6cb8b8229a6291f5f2001f816ba890317082021-05-21 9:01:1125 days 7 hrs ago0x30e4efb2638fa59e5c5db3384e61f89810bc4827OUT 0x43f76c31e29374a997a0d6f31035c1d74d76d2000 BNB0.00081522
0x279bb04b4afcc757179e107c6ad3f7ecac95470eaa7801c201be5627f09828ce90316422021-05-21 8:57:5325 days 7 hrs ago0x30e4efb2638fa59e5c5db3384e61f89810bc4827OUT 0x52e16a186530ff7644483b2394fb7136011c24b50 BNB0.00045862
0x6b822ca37612bd93ff8aa1725a296a5f7f820fb2fcea6c218cb87fddd6c9a90290316002021-05-21 8:55:4725 days 7 hrs ago0x30e4efb2638fa59e5c5db3384e61f89810bc4827OUT 0xe2f755d03b42fe74f20b317c43fcd6f6ad51dd3f0 BNB0.03232272
0xd51958e4f2e338502e0837eee8f0312518f000fbe06341a62493f9150dcc428290315272021-05-21 8:52:0825 days 7 hrs ago0x30e4efb2638fa59e5c5db3384e61f89810bc4827OUT 0x52e16a186530ff7644483b2394fb7136011c24b50 BNB0.00037618
0x1ec3f90ed76715d332ffbcc4de1c8f329f665dc9eff7ce5980ef772f9d24f85a90314502021-05-21 8:48:1725 days 7 hrs ago0x30e4efb2638fa59e5c5db3384e61f89810bc4827OUT 0xb0299bd3d8fecb5a237b70519bf85f26701fb9780 BNB0.0005467
0xceaddef90c8651a64cabf70405382b7a7050b132ea1889e0769d2f80ea96887a90314362021-05-21 8:47:3525 days 7 hrs ago0x30e4efb2638fa59e5c5db3384e61f89810bc4827OUT Contract Creation0 BNB0.09998866
0x6400092c8c48f2522978deb370bcdffb7db8049d211bee645300e33084e7d54b90314332021-05-21 8:47:2625 days 7 hrs ago0x30e4efb2638fa59e5c5db3384e61f89810bc4827OUT 0xb0299bd3d8fecb5a237b70519bf85f26701fb9780 BNB0.0008467
0xb3eaf20fc193ea5103564eb05f4b78d92a91f683d6d4b2d989a3743490632cfa90314202021-05-21 8:46:4725 days 7 hrs ago0x30e4efb2638fa59e5c5db3384e61f89810bc4827OUT Contract Creation0 BNB0.00373926
0xe67dfb6851223f4c4d6d0a73f094c5de5726f917e83ee9de0f34dbc17742a39f90313162021-05-21 8:41:3525 days 7 hrs ago0x30e4efb2638fa59e5c5db3384e61f89810bc4827OUT 0xa329faeda8b2859dd43894d2ce8bbf30b23241b70 BNB0.00054676
0x232addb6722ecd631ad664ebe2901b2ef22e5df14f02c3c440c221e5713ea08c90313042021-05-21 8:40:5925 days 7 hrs ago0x30e4efb2638fa59e5c5db3384e61f89810bc4827OUT Contract Creation0 BNB0.09790386
0x1f59b372c3728ee972f24fcce201d47584a955ce81461a3385d0b8454666781f90312762021-05-21 8:39:3525 days 7 hrs ago0x30e4efb2638fa59e5c5db3384e61f89810bc4827OUT Contract Creation0 BNB0.01379456
0x194f474cf250c89cb185fa142afc1cfb7c8cce0707b24fac1fefdd9a891b09fc90310412021-05-21 8:27:5025 days 7 hrs ago0x30e4efb2638fa59e5c5db3384e61f89810bc4827OUT Contract Creation0 BNB0.01376384
0x532275ea1d85acb8bdeb6bf4ea3bbf96093ab3f31acd4098565c4d55943f1e5290310382021-05-21 8:27:4125 days 7 hrs ago0x30e4efb2638fa59e5c5db3384e61f89810bc4827OUT 0xa329faeda8b2859dd43894d2ce8bbf30b23241b70 BNB0.00084676
0xb8102aaa1707b03a1e945989dac062a869433c57a6aa94ccfe004d4cbef43cb490310242021-05-21 8:26:5925 days 7 hrs ago0x30e4efb2638fa59e5c5db3384e61f89810bc4827OUT Contract Creation0 BNB0.00383886
0xc64be7b5689e5ad38230a20167daa741425391330da3d4d4139c5c653a5e262e87727152021-05-12 9:06:2734 days 7 hrs ago0x30e4efb2638fa59e5c5db3384e61f89810bc4827OUT0x10ed43c718714eb63d5aa57b78b54704e256024e1 BNB0.000226
0x9b8e22927a36e92afc4424485e17126238577900ff90bc7de6e9900646edb4f487449662021-05-11 9:33:0935 days 6 hrs ago0x30e4efb2638fa59e5c5db3384e61f89810bc4827OUT 0x7e137aba9d9ac5d5c24e5541243106ed312853ce0 BNB0.0002999
0x09d65880e8cdb3887eec0624558546a716484841501ad68618d6d9e5f4bbf82487449092021-05-11 9:30:1835 days 6 hrs ago0x30e4efb2638fa59e5c5db3384e61f89810bc4827OUT 0xa21a1417659935c7a54193f8da1aca2f812907740 BNB0.00054532
0x25e2371b568bc8cfe2b4e6f1d6eeb097781b955e1841071c307a7578ce419da287448942021-05-11 9:29:3335 days 6 hrs ago0x30e4efb2638fa59e5c5db3384e61f89810bc4827OUT Contract Creation0 BNB0.0776443
[ Download CSV Export 
Parent Txn Hash Block From To Value
Loading

Contract Name:
0 BNB

Compiler Version
0

Optimization Enabled:
0 BNB

Other Settings:
-NA-
Block Transaction Gas Used Reward
Age Block Fee Address BC Fee Address Voting Power Jailed Incoming
Block Uncle Number Difficulty Gas Used Reward
Loading